Time;durP1;ratioP1;P1;durP2;ratioP2;P2;SDS_P1;SDS_P2;PMS_P1;PMS_P2;Temp;Humidity;BMP_temperature;BMP_pressure;BME280_temperature;BME280_humidity;BME280_pressure;Samples;Min_cycle;Max_cycle;Signal;HPM_P1;HPM_P2
2022/08/29 00:00:07;;;;;;;5.38;2.63;;;14.70;99.90;;;;;;5002704;28;20093;-67
2022/08/29 00:02:32;;;;;;;6.63;3.10;;;14.70;99.90;;;;;;4991921;28;20114;-67
2022/08/29 00:04:58;;;;;;;7.35;3.20;;;14.70;99.90;;;;;;4992024;28;20071;-67
2022/08/29 00:07:24;;;;;;;9.82;3.33;;;14.70;99.90;;;;;;5009141;28;20554;-67
2022/08/29 00:09:50;;;;;;;9.10;2.63;;;14.70;99.90;;;;;;5008414;28;20120;-67
2022/08/29 00:12:16;;;;;;;5.53;3.05;;;14.70;99.90;;;;;;5011523;28;20058;-68
2022/08/29 00:14:41;;;;;;;7.80;3.20;;;14.70;99.90;;;;;;5010053;28;20519;-68
2022/08/29 00:17:07;;;;;;;7.03;2.85;;;14.80;99.90;;;;;;5010434;28;20399;-68
2022/08/29 00:19:33;;;;;;;8.88;3.00;;;14.80;99.90;;;;;;4991300;28;20041;-67
2022/08/29 00:21:58;;;;;;;6.35;2.67;;;14.80;99.90;;;;;;5006875;28;20040;-68
2022/08/29 00:24:24;;;;;;;6.20;3.05;;;14.80;99.90;;;;;;5010382;28;20056;-68
2022/08/29 00:26:50;;;;;;;5.65;3.03;;;14.80;99.90;;;;;;4976012;28;20050;-67
2022/08/29 00:29:16;;;;;;;8.43;3.17;;;14.80;99.90;;;;;;5007843;28;20037;-68
2022/08/29 00:31:42;;;;;;;8.82;3.03;;;14.80;99.90;;;;;;5007165;28;20096;-68
2022/08/29 00:34:07;;;;;;;4.70;2.85;;;14.80;99.90;;;;;;4985846;28;20046;-67
2022/08/29 00:36:34;;;;;;;6.93;3.10;;;14.80;99.90;;;;;;4995763;28;20403;-67
2022/08/29 00:39:01;;;;;;;6.28;3.22;;;14.80;99.90;;;;;;5010096;28;20088;-68
2022/08/29 00:41:27;;;;;;;8.15;3.03;;;14.90;99.90;;;;;;5009793;28;20054;-68
2022/08/29 00:43:53;;;;;;;9.02;3.42;;;14.80;99.90;;;;;;4996178;28;20058;-68
2022/08/29 00:46:33;;;;;;;6.38;3.35;;;14.80;99.90;;;;;;5007874;28;20045;-67
2022/08/29 00:49:06;;;;;;;6.20;3.20;;;14.90;99.90;;;;;;5009914;28;20061;-68
2022/08/29 00:51:32;;;;;;;7.03;3.00;;;14.90;99.90;;;;;;5006746;28;20125;-68
2022/08/29 00:54:05;;;;;;;5.85;3.08;;;14.90;99.90;;;;;;4993548;28;20141;-67
2022/08/29 00:56:32;;;;;;;8.18;3.35;;;14.90;99.90;;;;;;4995925;28;20057;-68
2022/08/29 00:59:15;;;;;;;5.88;3.17;;;14.90;99.90;;;;;;5008901;28;20038;-68
2022/08/29 01:01:42;;;;;;;7.88;3.35;;;14.90;99.90;;;;;;5008030;28;20637;-67
2022/08/29 01:04:09;;;;;;;5.32;2.80;;;14.90;99.90;;;;;;5006409;28;20038;-68
2022/08/29 01:06:36;;;;;;;6.65;2.90;;;14.90;99.90;;;;;;5009562;28;20565;-68
2022/08/29 01:09:03;;;;;;;5.10;3.47;;;15.00;99.90;;;;;;4990295;28;20385;-68
2022/08/29 01:14:17;;;;;;;10.23;3.30;;;15.00;99.90;;;;;;5007608;28;20046;-68
2022/08/29 01:16:45;;;;;;;9.00;3.50;;;14.90;99.90;;;;;;4992940;28;20506;-67
2022/08/29 01:19:30;;;;;;;4.85;3.05;;;14.90;99.90;;;;;;4974249;28;20486;-67
2022/08/29 01:22:19;;;;;;;6.80;3.50;;;14.90;99.90;;;;;;5006507;28;20050;-68
2022/08/29 01:24:49;;;;;;;5.60;3.47;;;14.90;99.90;;;;;;5009158;28;20038;-68
2022/08/29 01:27:20;;;;;;;6.78;3.17;;;14.90;99.90;;;;;;4991169;28;20103;-68
2022/08/29 01:29:47;;;;;;;9.77;4.13;;;14.90;99.90;;;;;;5005992;28;20486;-68
2022/08/29 01:32:13;;;;;;;8.43;3.72;;;14.90;99.90;;;;;;4992717;28;20041;-68
2022/08/29 01:34:40;;;;;;;8.60;3.13;;;14.90;99.90;;;;;;5008148;28;20537;-68
2022/08/29 01:37:09;;;;;;;6.93;3.40;;;14.90;99.90;;;;;;4995839;28;20045;-68
2022/08/29 01:39:39;;;;;;;7.15;3.40;;;14.90;99.90;;;;;;5009288;28;20033;-68
2022/08/29 01:42:14;;;;;;;7.38;3.60;;;14.90;99.90;;;;;;5008175;28;20073;-68
2022/08/29 01:44:41;;;;;;;11.07;3.20;;;14.90;99.90;;;;;;4995186;28;20505;-67
2022/08/29 01:47:07;;;;;;;7.07;3.22;;;14.90;99.90;;;;;;4974003;28;20105;-67
2022/08/29 01:49:35;;;;;;;8.73;3.33;;;14.90;99.90;;;;;;5007708;28;20042;-68
2022/08/29 01:52:02;;;;;;;8.57;3.42;;;14.90;99.90;;;;;;4994982;28;20060;-68
2022/08/29 01:54:28;;;;;;;8.30;3.72;;;14.90;99.90;;;;;;4989987;28;20069;-67
2022/08/29 01:56:54;;;;;;;6.18;3.13;;;14.90;99.90;;;;;;4993442;28;20121;-68
2022/08/29 01:59:25;;;;;;;7.47;3.40;;;14.90;99.90;;;;;;4989523;28;20514;-67
2022/08/29 02:02:06;;;;;;;9.02;3.70;;;14.90;99.90;;;;;;4977117;28;20042;-68
2022/08/29 02:04:32;;;;;;;11.10;4.28;;;15.00;99.90;;;;;;5010135;28;20037;-68
2022/08/29 02:06:59;;;;;;;10.20;3.58;;;14.90;99.90;;;;;;5011101;28;20057;-67
2022/08/29 02:09:26;;;;;;;6.80;3.47;;;15.00;99.90;;;;;;4992193;28;20402;-68
2022/08/29 02:11:53;;;;;;;7.90;3.35;;;14.90;99.90;;;;;;5011407;28;21363;-68
2022/08/29 02:14:19;;;;;;;10.13;3.75;;;14.90;99.90;;;;;;4972305;28;20530;-67
2022/08/29 02:16:46;;;;;;;9.18;3.60;;;15.00;99.90;;;;;;5005736;28;20038;-68
2022/08/29 02:19:12;;;;;;;10.75;3.38;;;15.00;99.90;;;;;;4989858;28;20053;-68
2022/08/29 02:21:38;;;;;;;9.65;3.90;;;14.90;99.90;;;;;;5008745;28;20427;-67
2022/08/29 02:24:04;;;;;;;9.25;3.17;;;14.90;99.90;;;;;;4988457;28;20065;-68
2022/08/29 02:26:30;;;;;;;8.13;3.70;;;15.00;99.90;;;;;;5006892;28;20522;-68
2022/08/29 02:28:56;;;;;;;8.10;3.17;;;14.90;99.90;;;;;;5007193;28;20042;-67
2022/08/29 02:31:23;;;;;;;9.48;3.70;;;14.90;99.90;;;;;;5010073;28;20038;-68
2022/08/29 02:33:50;;;;;;;7.93;3.92;;;14.90;99.90;;;;;;5004599;28;20436;-68
2022/08/29 02:36:16;;;;;;;8.95;3.80;;;14.90;99.90;;;;;;4989944;28;20049;-68
2022/08/29 02:38:42;;;;;;;7.90;3.42;;;14.90;99.90;;;;;;5006912;28;20117;-68
2022/08/29 02:41:08;;;;;;;7.05;3.80;;;14.90;99.90;;;;;;4995598;28;20258;-68
2022/08/29 02:43:34;;;;;;;6.53;3.30;;;14.90;99.90;;;;;;4974715;28;20510;-67
2022/08/29 02:46:00;;;;;;;7.68;3.40;;;14.90;99.90;;;;;;5007623;28;20048;-67
2022/08/29 02:48:29;;;;;;;6.35;3.65;;;14.90;99.90;;;;;;4995786;28;20056;-67
2022/08/29 02:50:57;;;;;;;7.05;3.88;;;14.90;99.90;;;;;;4990556;28;20080;-67
2022/08/29 02:53:25;;;;;;;7.65;3.90;;;14.90;99.90;;;;;;4972447;28;20045;-67
2022/08/29 02:55:52;;;;;;;8.60;3.80;;;14.90;99.90;;;;;;4988706;28;20088;-67
2022/08/29 02:58:20;;;;;;;5.60;3.45;;;14.90;99.90;;;;;;4977665;28;20121;-67
2022/08/29 03:00:45;;;;;;;6.50;3.55;;;14.90;99.90;;;;;;4974668;28;20057;-67
2022/08/29 03:03:11;;;;;;;11.55;3.92;;;14.80;99.90;;;;;;5007940;28;20042;-67
2022/08/29 03:05:38;;;;;;;10.73;3.83;;;14.80;99.90;;;;;;4990741;28;20053;-68
2022/08/29 03:08:07;;;;;;;8.52;3.88;;;14.80;99.90;;;;;;4989458;28;20444;-68
2022/08/29 03:10:33;;;;;;;5.75;3.55;;;14.80;99.90;;;;;;5007416;28;20161;-67
2022/08/29 03:12:59;;;;;;;6.40;3.53;;;14.80;99.90;;;;;;5002979;28;20103;-68
2022/08/29 03:15:25;;;;;;;9.77;3.75;;;14.70;99.90;;;;;;4990090;28;20057;-67
2022/08/29 03:17:51;;;;;;;7.95;3.72;;;14.70;99.90;;;;;;5006713;28;20092;-67
2022/08/29 03:20:19;;;;;;;6.72;3.40;;;14.70;99.90;;;;;;4989568;28;20208;-68
2022/08/29 03:22:45;;;;;;;7.53;3.80;;;14.70;99.90;;;;;;5004875;28;20402;-67
2022/08/29 03:25:12;;;;;;;9.52;3.90;;;14.60;99.90;;;;;;5008447;28;20103;-67
2022/08/29 03:27:38;;;;;;;9.18;3.90;;;14.60;99.90;;;;;;5007287;28;20037;-68
2022/08/29 03:30:10;;;;;;;8.48;3.58;;;14.60;99.90;;;;;;4989424;28;20372;-67
2022/08/29 03:32:37;;;;;;;11.27;4.35;;;14.70;99.90;;;;;;5006371;28;20499;-67
2022/08/29 03:35:03;;;;;;;10.30;3.72;;;14.60;99.90;;;;;;5008545;28;20100;-67
2022/08/29 03:37:30;;;;;;;6.43;3.72;;;14.70;99.90;;;;;;4989940;28;20080;-67
2022/08/29 03:39:55;;;;;;;6.82;3.67;;;14.60;99.90;;;;;;5006235;28;20566;-67
2022/08/29 03:42:21;;;;;;;8.63;3.38;;;14.60;99.90;;;;;;5008248;28;20037;-68
2022/08/29 03:44:47;;;;;;;8.50;3.60;;;14.70;99.90;;;;;;4990783;28;20041;-67
2022/08/29 03:47:13;;;;;;;6.82;3.70;;;14.60;99.90;;;;;;5006228;28;20434;-68
2022/08/29 03:49:39;;;;;;;9.27;3.97;;;14.70;99.90;;;;;;5003887;28;20073;-67
2022/08/29 03:52:08;;;;;;;7.05;3.22;;;14.60;99.90;;;;;;5005435;28;20057;-67
2022/08/29 03:54:34;;;;;;;8.73;3.65;;;14.70;99.90;;;;;;5006332;28;20443;-67
2022/08/29 03:57:00;;;;;;;7.75;3.65;;;14.70;99.90;;;;;;5005375;28;20084;-67
2022/08/29 03:59:26;;;;;;;9.35;3.80;;;14.70;99.90;;;;;;5002983;28;20050;-67
2022/08/29 04:01:51;;;;;;;7.50;3.67;;;14.70;99.90;;;;;;5003282;28;20418;-67
2022/08/29 04:07:05;;;;;;;8.77;3.42;;;14.70;99.90;;;;;;5004615;28;20037;-67
2022/08/29 04:09:31;;;;;;;6.97;3.65;;;14.70;99.90;;;;;;5010913;28;20103;-67
2022/08/29 04:11:57;;;;;;;7.93;3.72;;;14.70;99.90;;;;;;5006738;28;20177;-67
2022/08/29 04:14:24;;;;;;;6.40;3.17;;;14.70;99.90;;;;;;5006023;28;20038;-67
2022/08/29 04:16:50;;;;;;;5.28;3.60;;;14.70;99.90;;;;;;5005533;28;20038;-67
2022/08/29 04:19:17;;;;;;;12.68;3.60;;;14.70;99.90;;;;;;4987993;28;20042;-67
2022/08/29 04:21:44;;;;;;;7.82;3.63;;;14.70;99.90;;;;;;5006188;28;20046;-67
2022/08/29 04:24:19;;;;;;;7.00;3.55;;;14.80;99.90;;;;;;5007962;28;20557;-67
2022/08/29 04:26:45;;;;;;;10.98;4.00;;;14.80;99.90;;;;;;5005044;28;20054;-68
2022/08/29 04:29:12;;;;;;;10.65;3.63;;;14.80;99.90;;;;;;5005194;28;20355;-67
2022/08/29 04:31:40;;;;;;;10.27;3.53;;;14.80;99.90;;;;;;5002378;28;20567;-67
2022/08/29 04:34:07;;;;;;;9.65;4.05;;;14.80;99.90;;;;;;4970916;28;20046;-67
2022/08/29 04:36:34;;;;;;;5.95;3.45;;;14.70;99.90;;;;;;5006038;28;20124;-67
2022/08/29 04:39:00;;;;;;;9.40;3.90;;;14.70;99.90;;;;;;5003787;28;20034;-67
2022/08/29 04:41:26;;;;;;;10.32;4.32;;;14.60;99.90;;;;;;5006339;28;20048;-68
2022/08/29 04:43:52;;;;;;;8.90;3.60;;;14.60;99.90;;;;;;5007051;28;20050;-68
2022/08/29 04:46:18;;;;;;;10.05;3.85;;;14.50;99.90;;;;;;5001367;28;20176;-67
2022/08/29 04:48:43;;;;;;;9.75;3.30;;;14.50;99.90;;;;;;5006518;28;20042;-67
2022/08/29 04:51:09;;;;;;;6.70;3.15;;;14.40;99.90;;;;;;4990856;28;20181;-67
2022/08/29 04:53:35;;;;;;;7.10;3.20;;;14.40;99.90;;;;;;4990003;28;20048;-67
2022/08/29 04:56:07;;;;;;;8.00;3.72;;;14.30;99.90;;;;;;5004191;28;20048;-67
2022/08/29 04:58:35;;;;;;;9.98;3.95;;;14.30;99.90;;;;;;5008933;28;20038;-67
2022/08/29 05:01:02;;;;;;;5.88;3.22;;;14.20;99.90;;;;;;5007072;28;20044;-67
2022/08/29 05:03:28;;;;;;;8.35;3.83;;;14.20;99.90;;;;;;5008023;28;20491;-67
2022/08/29 05:06:06;;;;;;;8.52;3.50;;;14.20;99.90;;;;;;4992458;28;20120;-67
2022/08/29 05:08:33;;;;;;;9.68;3.85;;;14.20;99.90;;;;;;5011962;28;20294;-67
2022/08/29 05:10:59;;;;;;;6.32;3.75;;;14.20;99.90;;;;;;5009058;28;20131;-67
2022/08/29 05:13:25;;;;;;;7.82;3.63;;;14.10;99.90;;;;;;5009148;28;20112;-67
2022/08/29 05:15:51;;;;;;;11.07;3.45;;;14.10;99.90;;;;;;4993038;28;20042;-67
2022/08/29 05:18:17;;;;;;;6.68;3.53;;;14.10;99.90;;;;;;4975980;28;20153;-67
2022/08/29 05:20:45;;;;;;;7.95;3.72;;;14.10;99.90;;;;;;5008218;28;20038;-67
2022/08/29 05:23:12;;;;;;;9.57;4.18;;;14.10;99.90;;;;;;4993897;28;20451;-67
2022/08/29 05:25:38;;;;;;;7.70;3.88;;;14.10;99.90;;;;;;5007645;28;20057;-67
2022/08/29 05:28:04;;;;;;;8.02;3.40;;;14.10;99.90;;;;;;5009039;28;20430;-67
2022/08/29 05:30:30;;;;;;;10.10;3.97;;;14.10;99.90;;;;;;5006820;28;20178;-67
2022/08/29 05:32:57;;;;;;;8.32;3.42;;;14.10;99.90;;;;;;4988084;28;20038;-67
2022/08/29 05:35:23;;;;;;;6.70;3.75;;;14.10;99.90;;;;;;5010395;28;20034;-67
2022/08/29 05:37:49;;;;;;;6.95;3.67;;;14.20;99.90;;;;;;4991103;28;20409;-67
2022/08/29 05:40:15;;;;;;;6.22;3.83;;;14.20;99.90;;;;;;4991986;28;20042;-67
2022/08/29 05:42:41;;;;;;;7.18;3.45;;;14.20;99.90;;;;;;4989856;28;20037;-67
2022/08/29 05:45:07;;;;;;;10.00;3.83;;;14.30;99.90;;;;;;4989825;28;20128;-67
2022/08/29 05:47:33;;;;;;;10.43;3.70;;;14.30;99.90;;;;;;5005638;28;20038;-67
2022/08/29 05:49:59;;;;;;;12.15;4.00;;;14.30;99.90;;;;;;5006784;28;20525;-67
2022/08/29 05:52:26;;;;;;;11.20;4.35;;;14.40;99.90;;;;;;4972675;28;20432;-67
2022/08/29 05:54:52;;;;;;;12.02;3.88;;;14.40;99.90;;;;;;5008550;28;20087;-67
2022/08/29 05:57:20;;;;;;;8.30;3.78;;;14.50;99.90;;;;;;5003542;28;20129;-67
2022/08/29 05:59:48;;;;;;;13.35;4.20;;;14.50;99.90;;;;;;5007351;28;20026;-67
2022/08/29 06:02:15;;;;;;;10.38;3.65;;;14.50;99.90;;;;;;5006810;28;20535;-67
2022/08/29 06:04:41;;;;;;;10.57;4.38;;;14.60;99.90;;;;;;5008126;28;20099;-67
2022/08/29 06:07:08;;;;;;;10.07;4.00;;;14.60;99.90;;;;;;4991844;28;20045;-67
2022/08/29 06:09:35;;;;;;;9.10;4.13;;;14.70;99.90;;;;;;5010849;28;20038;-67
2022/08/29 06:12:01;;;;;;;5.97;3.58;;;14.80;99.90;;;;;;5007067;28;20419;-67
2022/08/29 06:14:27;;;;;;;11.43;3.83;;;14.90;99.90;;;;;;4991311;28;20045;-67
2022/08/29 06:16:54;;;;;;;9.85;4.50;;;14.90;99.90;;;;;;4992072;28;20137;-67
2022/08/29 06:19:20;;;;;;;6.82;3.45;;;15.00;99.90;;;;;;5008057;28;20046;-67
2022/08/29 06:21:46;;;;;;;7.82;3.67;;;15.10;99.90;;;;;;4989200;28;20030;-67
2022/08/29 06:24:13;;;;;;;7.05;3.97;;;15.20;99.90;;;;;;4988643;28;20046;-67
2022/08/29 06:26:38;;;;;;;7.50;3.95;;;15.20;99.90;;;;;;5006417;28;20048;-67
2022/08/29 06:29:06;;;;;;;11.77;3.88;;;15.30;99.90;;;;;;5008104;28;20038;-67
2022/08/29 06:31:32;;;;;;;5.63;3.45;;;15.30;99.90;;;;;;5006779;28;20090;-67
2022/08/29 06:34:01;;;;;;;9.02;3.95;;;15.40;99.90;;;;;;5006148;28;20195;-67
2022/08/29 06:36:29;;;;;;;9.25;3.97;;;15.40;99.90;;;;;;4992874;28;20042;-67
2022/08/29 06:38:56;;;;;;;7.22;4.53;;;15.50;99.90;;;;;;5007721;28;20108;-67
2022/08/29 06:41:23;;;;;;;10.27;4.20;;;15.50;99.90;;;;;;5011304;28;20041;-67
2022/08/29 06:43:49;;;;;;;9.55;3.97;;;15.60;99.90;;;;;;5011302;28;20100;-68
2022/08/29 06:46:26;;;;;;;8.27;3.80;;;15.70;99.90;;;;;;5013355;28;20096;-67
2022/08/29 06:48:53;;;;;;;7.07;3.42;;;15.70;99.90;;;;;;5009512;28;20041;-67
2022/08/29 06:51:20;;;;;;;9.85;3.80;;;15.80;99.90;;;;;;4993758;28;20037;-67
2022/08/29 06:53:45;;;;;;;8.27;3.85;;;15.80;99.90;;;;;;5012959;28;20132;-67
2022/08/29 06:56:12;;;;;;;11.38;4.63;;;15.90;99.90;;;;;;5013431;28;20385;-68
2022/08/29 06:58:38;;;;;;;10.38;4.18;;;15.90;99.90;;;;;;5009141;28;20033;-67
2022/08/29 07:01:08;;;;;;;9.75;3.90;;;16.00;99.90;;;;;;4991764;28;20034;-67
2022/08/29 07:03:34;;;;;;;8.05;3.55;;;16.00;99.90;;;;;;5006561;28;20652;-68
2022/08/29 07:06:00;;;;;;;8.75;3.63;;;16.10;99.90;;;;;;4992989;28;20049;-67
2022/08/29 07:08:26;;;;;;;12.95;4.20;;;16.20;99.90;;;;;;5013899;28;20037;-67
2022/08/29 07:10:51;;;;;;;7.55;3.95;;;16.20;99.90;;;;;;5001848;28;20071;-67
2022/08/29 07:13:17;;;;;;;14.63;4.80;;;16.20;99.90;;;;;;5015797;28;20049;-68
2022/08/29 07:15:43;;;;;;;8.07;3.63;;;16.30;99.90;;;;;;4992738;28;20064;-67
2022/08/29 07:18:09;;;;;;;8.00;3.80;;;16.30;99.90;;;;;;4994052;28;20034;-67
2022/08/29 07:20:38;;;;;;;8.10;3.78;;;16.30;99.90;;;;;;4993262;28;20063;-68
2022/08/29 07:23:05;;;;;;;10.00;3.60;;;16.40;99.90;;;;;;4993117;28;20127;-67
2022/08/29 07:25:31;;;;;;;7.90;4.40;;;16.50;99.90;;;;;;5012760;28;20038;-68
2022/08/29 07:27:56;;;;;;;5.70;3.42;;;16.50;99.90;;;;;;5012740;28;20487;-67
2022/08/29 07:30:22;;;;;;;10.77;4.00;;;16.60;99.90;;;;;;5011813;28;20053;-68
2022/08/29 07:32:48;;;;;;;9.45;4.13;;;16.70;99.90;;;;;;5012046;28;20080;-68
2022/08/29 07:35:16;;;;;;;6.68;3.88;;;16.80;99.90;;;;;;5014244;28;20049;-68
2022/08/29 07:37:42;;;;;;;10.07;3.67;;;16.90;99.90;;;;;;4993335;28;20072;-68
2022/08/29 07:40:10;;;;;;;7.28;3.20;;;17.00;99.90;;;;;;4994369;28;20045;-68
2022/08/29 07:42:36;;;;;;;11.45;3.45;;;17.10;99.90;;;;;;4995664;28;20037;-68
2022/08/29 07:45:10;;;;;;;8.82;3.40;;;17.10;99.90;;;;;;5011163;28;20046;-68
2022/08/29 07:47:37;;;;;;;9.48;3.40;;;17.20;99.90;;;;;;5011063;28;20040;-68
2022/08/29 07:50:12;;;;;;;7.47;2.65;;;17.30;99.90;;;;;;4993279;28;20046;-67
2022/08/29 07:52:38;;;;;;;8.80;4.18;;;17.40;99.90;;;;;;4993457;28;20491;-68
2022/08/29 07:55:07;;;;;;;8.32;3.42;;;17.50;99.90;;;;;;5016048;28;20161;-68
2022/08/29 07:57:36;;;;;;;9.52;3.15;;;17.60;99.90;;;;;;5012463;28;20057;-68
2022/08/29 08:00:07;;;;;;;6.38;3.63;;;17.70;99.90;;;;;;5010854;28;20032;-68
2022/08/29 08:02:36;;;;;;;6.82;3.25;;;17.80;99.90;;;;;;5013855;28;20445;-68
2022/08/29 08:05:02;;;;;;;11.70;3.17;;;17.80;99.90;;;;;;5006792;28;20057;-68
2022/08/29 08:07:28;;;;;;;8.38;3.45;;;17.90;99.90;;;;;;5017074;28;20177;-68
2022/08/29 08:09:54;;;;;;;11.98;3.47;;;17.90;99.90;;;;;;5013791;28;20046;-68
2022/08/29 08:12:24;;;;;;;6.55;3.35;;;17.90;99.90;;;;;;5010569;28;20041;-68
2022/08/29 08:14:52;;;;;;;9.48;3.28;;;17.90;99.90;;;;;;5012242;28;20045;-68
2022/08/29 08:17:21;;;;;;;10.52;3.67;;;18.00;99.90;;;;;;4994733;28;20068;-68
2022/08/29 08:19:57;;;;;;;6.55;3.70;;;18.00;99.90;;;;;;4998197;28;20423;-68
2022/08/29 08:22:26;;;;;;;7.82;3.63;;;18.00;99.90;;;;;;5011214;28;20034;-68
2022/08/29 08:24:51;;;;;;;13.10;3.80;;;18.10;99.90;;;;;;4991244;28;20045;-68
2022/08/29 08:27:18;;;;;;;11.20;4.25;;;18.20;99.90;;;;;;5012658;28;20419;-68
2022/08/29 08:29:43;;;;;;;9.38;3.83;;;18.20;99.90;;;;;;5013643;28;20445;-68
2022/08/29 08:32:13;;;;;;;13.23;3.85;;;18.30;99.90;;;;;;5016223;28;20037;-68
2022/08/29 08:34:39;;;;;;;12.45;3.72;;;18.40;99.90;;;;;;5000484;28;20084;-68
2022/08/29 08:37:08;;;;;;;6.63;3.50;;;18.50;99.90;;;;;;4998768;28;20077;-68
2022/08/29 08:39:36;;;;;;;9.55;3.75;;;18.50;99.90;;;;;;5013569;28;20096;-68
2022/08/29 08:42:24;;;;;;;15.68;4.60;;;18.50;99.90;;;;;;5010427;28;20492;-68
2022/08/29 08:45:18;;;;;;;6.13;3.92;;;18.60;99.90;;;;;;5008061;28;20100;-68
2022/08/29 08:48:01;;;;;;;11.15;4.13;;;18.70;99.90;;;;;;5027058;28;20034;-68
2022/08/29 08:51:04;;;;;;;9.27;3.65;;;18.80;99.90;;;;;;5014982;28;20048;-68
2022/08/29 08:53:38;;;;;;;11.57;4.78;;;19.00;99.90;;;;;;4979525;28;20052;-68
2022/08/29 08:56:29;;;;;;;7.68;3.47;;;19.10;99.90;;;;;;4995533;28;20046;-68
2022/08/29 08:59:20;;;;;;;9.35;3.80;;;19.30;99.90;;;;;;5008179;28;20124;-68
2022/08/29 09:02:10;;;;;;;7.75;3.33;;;19.60;99.90;;;;;;5014464;28;20065;-68
2022/08/29 09:04:41;;;;;;;13.02;3.80;;;19.90;99.90;;;;;;4962817;28;20056;-68
2022/08/29 09:07:07;;;;;;;6.30;3.30;;;20.10;99.90;;;;;;5022481;28;20041;-68
2022/08/29 09:09:58;;;;;;;11.05;3.58;;;20.20;99.90;;;;;;5018003;28;20177;-68
2022/08/29 09:13:08;;;;;;;11.18;4.55;;;20.20;99.90;;;;;;5016108;28;20124;-69
2022/08/29 09:15:46;;;;;;;11.27;3.83;;;20.10;99.90;;;;;;4988891;28;20045;-68
2022/08/29 09:18:38;;;;;;;9.63;4.20;;;20.10;99.90;;;;;;4996662;28;20469;-69
2022/08/29 09:21:08;;;;;;;11.67;4.10;;;20.10;99.90;;;;;;5017287;28;20111;-69
2022/08/29 09:23:47;;;;;;;12.68;3.30;;;20.00;99.90;;;;;;4993629;28;20054;-69
2022/08/29 09:26:19;;;;;;;9.27;3.15;;;20.10;99.90;;;;;;5005830;28;20125;-69
2022/08/29 09:28:44;;;;;;;12.95;4.15;;;20.10;99.90;;;;;;5020027;28;20471;-69
2022/08/29 09:31:16;;;;;;;10.88;3.55;;;20.10;99.90;;;;;;4987445;28;20048;-69
2022/08/29 09:33:48;;;;;;;9.52;4.35;;;20.20;99.90;;;;;;4996610;28;20054;-69
2022/08/29 09:36:32;;;;;;;10.50;3.50;;;20.30;99.90;;;;;;5012484;28;20052;-69
2022/08/29 09:39:13;;;;;;;12.02;3.50;;;20.30;99.90;;;;;;5014112;28;20192;-69
2022/08/29 09:41:39;;;;;;;9.60;3.60;;;20.30;99.90;;;;;;4990116;28;20088;-69
2022/08/29 09:44:08;;;;;;;8.52;3.70;;;20.30;99.90;;;;;;4982784;28;20120;-69
2022/08/29 09:46:34;;;;;;;11.27;3.85;;;20.30;99.90;;;;;;4978142;28;20510;-69
2022/08/29 09:49:02;;;;;;;9.73;3.70;;;20.20;99.90;;;;;;4984906;28;20077;-69
2022/08/29 09:51:36;;;;;;;12.63;3.90;;;20.20;99.90;;;;;;4985248;28;20042;-69
2022/08/29 09:54:24;;;;;;;10.25;3.83;;;20.10;99.90;;;;;;5001855;28;20042;-69
2022/08/29 09:57:21;;;;;;;9.40;3.80;;;20.10;99.90;;;;;;4983438;28;20319;-69
2022/08/29 10:00:07;;;;;;;8.70;3.58;;;20.10;99.90;;;;;;4984820;28;20030;-69
2022/08/29 10:02:55;;;;;;;11.68;3.58;;;20.00;99.90;;;;;;5000950;28;20502;-70
2022/08/29 10:05:35;;;;;;;11.10;3.70;;;20.00;99.90;;;;;;5000740;28;20100;-69
2022/08/29 10:08:04;;;;;;;10.57;3.70;;;19.90;99.90;;;;;;5000037;28;20050;-69
2022/08/29 10:10:34;;;;;;;10.95;4.00;;;19.90;99.90;;;;;;5001849;28;20148;-69
2022/08/29 10:13:26;;;;;;;5.65;3.55;;;19.90;99.90;;;;;;4984374;28;20524;-69
2022/08/29 10:16:15;;;;;;;8.20;4.07;;;19.90;99.90;;;;;;5000200;28;20057;-69
2022/08/29 10:18:51;;;;;;;8.85;4.00;;;20.00;99.90;;;;;;5000907;28;20288;-69
2022/08/29 10:21:35;;;;;;;12.90;3.90;;;20.10;99.90;;;;;;4999481;28;21432;-69
2022/08/29 10:24:18;;;;;;;10.35;4.10;;;20.20;99.90;;;;;;5000698;28;20171;-69
2022/08/29 10:26:55;;;;;;;7.72;4.38;;;20.20;99.90;;;;;;4983554;28;20169;-69
2022/08/29 10:29:37;;;;;;;7.90;3.60;;;20.30;99.90;;;;;;4998520;28;20638;-69
2022/08/29 10:32:34;;;;;;;10.98;4.10;;;20.50;99.90;;;;;;5001946;28;20164;-69
2022/08/29 10:35:26;;;;;;;8.52;3.90;;;20.60;99.90;;;;;;4982634;28;20049;-69
2022/08/29 10:37:52;;;;;;;10.10;3.72;;;20.80;99.90;;;;;;5000560;28;20050;-70
2022/08/29 10:40:25;;;;;;;13.02;4.20;;;20.80;99.90;;;;;;4984538;28;20372;-69
2022/08/29 10:43:07;;;;;;;7.35;3.53;;;20.90;99.90;;;;;;5003348;28;20533;-69
2022/08/29 10:46:11;;;;;;;8.25;4.05;;;21.10;99.90;;;;;;5001357;28;20149;-69
2022/08/29 10:48:59;;;;;;;12.13;4.35;;;21.20;99.90;;;;;;4965566;28;20064;-69
2022/08/29 10:51:46;;;;;;;11.45;3.60;;;21.30;99.90;;;;;;5000643;28;20030;-69
2022/08/29 10:54:31;;;;;;;10.02;3.78;;;21.40;99.90;;;;;;4997623;28;20046;-69
2022/08/29 10:56:59;;;;;;;6.50;3.20;;;21.60;99.90;;;;;;4968135;28;20493;-69
2022/08/29 10:59:56;;;;;;;13.70;4.63;;;21.70;99.90;;;;;;4983025;28;20038;-70
2022/08/29 11:02:44;;;;;;;7.35;3.83;;;21.70;99.90;;;;;;4983777;28;20232;-70
2022/08/29 11:05:16;;;;;;;7.13;3.30;;;21.70;99.90;;;;;;4981515;28;20065;-70
2022/08/29 11:08:20;;;;;;;10.18;4.03;;;21.70;99.90;;;;;;5000534;28;20165;-71
2022/08/29 11:10:50;;;;;;;5.45;3.17;;;21.70;99.90;;;;;;4920431;29;20040;-70
2022/08/29 11:13:39;;;;;;;9.73;4.35;;;21.80;99.90;;;;;;4971478;28;20503;-70
2022/08/29 11:16:17;;;;;;;9.80;3.70;;;22.00;99.90;;;;;;4983127;28;20414;-70
2022/08/29 11:18:55;;;;;;;7.65;3.55;;;22.10;99.90;;;;;;4980185;28;20275;-70
2022/08/29 11:21:39;;;;;;;8.68;3.50;;;22.30;99.90;;;;;;4974342;28;20045;-70
2022/08/29 11:24:06;;;;;;;9.60;3.53;;;22.40;99.90;;;;;;4979912;28;20375;-70
2022/08/29 11:26:40;;;;;;;7.07;3.30;;;22.40;99.90;;;;;;4966257;28;20076;-70
2022/08/29 11:29:25;;;;;;;7.28;3.03;;;22.40;99.90;;;;;;4981957;28;20115;-70
2022/08/29 11:32:08;;;;;;;10.93;3.00;;;22.30;99.90;;;;;;4983208;28;21612;-70
2022/08/29 11:34:54;;;;;;;5.55;3.22;;;22.10;99.90;;;;;;4999409;28;20929;-70
2022/08/29 11:37:27;;;;;;;7.63;2.90;;;22.00;99.90;;;;;;4966560;28;20064;-70
2022/08/29 11:40:42;;;;;;;7.03;3.38;;;22.00;99.90;;;;;;5008371;28;20056;-70
2022/08/29 11:43:13;;;;;;;6.40;3.28;;;22.10;99.90;;;;;;4913336;28;20047;-70
2022/08/29 11:45:41;;;;;;;9.02;3.50;;;22.00;99.90;;;;;;5001631;28;20041;-70
2022/08/29 11:48:35;;;;;;;9.43;3.55;;;22.00;99.90;;;;;;5000998;28;20045;-70
2022/08/29 11:51:26;;;;;;;8.45;2.92;;;22.00;99.90;;;;;;4982764;28;20041;-70
2022/08/29 11:53:52;;;;;;;7.60;3.45;;;22.10;99.90;;;;;;4982679;28;20046;-71
2022/08/29 11:56:26;;;;;;;12.15;3.35;;;22.10;99.90;;;;;;4982756;28;20956;-70
2022/08/29 11:58:58;;;;;;;6.85;3.17;;;22.10;99.90;;;;;;4980532;28;20561;-70
2022/08/29 12:01:24;;;;;;;7.97;3.45;;;22.10;99.90;;;;;;4982845;28;20058;-71
2022/08/29 12:03:53;;;;;;;9.50;3.20;;;22.20;99.90;;;;;;4983316;28;20069;-70
2022/08/29 12:06:24;;;;;;;6.72;3.03;;;22.40;99.90;;;;;;4985893;28;20041;-70
2022/08/29 12:09:17;;;;;;;7.18;3.25;;;22.50;99.90;;;;;;4989919;28;20045;-70
2022/08/29 12:12:01;;;;;;;9.68;4.65;;;22.70;99.90;;;;;;4990264;28;20092;-70
2022/08/29 12:14:43;;;;;;;6.60;3.08;;;22.70;99.90;;;;;;5008904;28;20034;-70
2022/08/29 12:17:23;;;;;;;6.63;3.45;;;22.70;99.90;;;;;;4989868;28;20048;-70
2022/08/29 12:20:11;;;;;;;7.25;3.10;;;22.60;99.90;;;;;;4991363;28;20349;-70
2022/08/29 12:23:05;;;;;;;12.88;3.90;;;22.60;99.90;;;;;;4991614;28;20044;-70
2022/08/29 12:25:53;;;;;;;9.27;3.60;;;22.60;99.90;;;;;;5002489;28;20066;-70
2022/08/29 12:28:25;;;;;;;11.13;3.38;;;22.60;99.90;;;;;;5002822;28;20088;-70
2022/08/29 12:30:57;;;;;;;5.60;3.08;;;22.60;99.90;;;;;;4983399;28;20048;-70
2022/08/29 12:33:41;;;;;;;8.50;3.55;;;22.70;99.90;;;;;;5008044;28;20132;-70
2022/08/29 12:36:36;;;;;;;8.48;3.17;;;22.60;99.90;;;;;;4987862;28;20038;-70
2022/08/29 12:39:38;;;;;;;13.63;3.53;;;22.80;99.90;;;;;;5008522;28;20034;-70
2022/08/29 12:42:49;;;;;;;6.78;3.10;;;22.70;99.90;;;;;;4972741;28;20041;-70
2022/08/29 12:45:25;;;;;;;7.80;3.40;;;22.60;99.90;;;;;;4987525;28;20053;-70
2022/08/29 12:47:55;;;;;;;9.73;3.95;;;22.60;99.90;;;;;;5006525;28;20049;-70
2022/08/29 12:50:27;;;;;;;9.90;3.83;;;22.60;99.90;;;;;;4990178;28;20038;-70
2022/08/29 12:52:59;;;;;;;;;;;22.50;99.90;;;;;;5007514;28;20041;-70
2022/08/29 12:55:31;;;;;;;9.77;3.10;;;22.40;99.90;;;;;;5008106;28;19924;-70
2022/08/29 12:57:57;;;;;;;12.25;3.42;;;22.40;99.90;;;;;;4999823;28;20249;-70
2022/08/29 13:00:28;;;;;;;11.63;3.35;;;22.40;99.90;;;;;;4990270;28;20404;-70
2022/08/29 13:02:57;;;;;;;4.25;2.90;;;22.30;99.90;;;;;;5004677;28;20530;-70
2022/08/29 13:05:24;;;;;;;5.85;2.80;;;22.30;99.90;;;;;;4989438;28;20114;-70
2022/08/29 13:08:09;;;;;;;6.72;2.88;;;22.40;99.90;;;;;;5006631;28;20038;-70
2022/08/29 13:10:40;;;;;;;7.65;3.58;;;22.40;99.90;;;;;;4989726;28;20220;-70
2022/08/29 13:13:12;;;;;;;10.00;3.83;;;22.40;99.90;;;;;;4987971;28;20042;-70